createdAt,value
2023-05-23T00:01:21.415Z,19.37
2023-05-23T00:03:49.353Z,19.30
2023-05-23T00:06:21.419Z,19.23
2023-05-23T00:08:48.267Z,19.17
2023-05-23T00:11:15.107Z,19.11
2023-05-23T00:13:42.412Z,19.03
2023-05-23T00:16:09.683Z,18.97
2023-05-23T00:18:43.135Z,18.90
2023-05-23T00:21:10.136Z,18.85
2023-05-23T00:23:36.726Z,18.78
2023-05-23T00:26:03.891Z,18.71
2023-05-23T00:28:30.500Z,18.66
2023-05-23T00:30:57.055Z,18.61
2023-05-23T00:33:23.693Z,18.57
2023-05-23T00:35:50.595Z,18.52
2023-05-23T00:38:17.754Z,18.48
2023-05-23T00:40:44.479Z,18.45
2023-05-23T00:43:11.229Z,18.42
2023-05-23T00:45:38.193Z,18.40
2023-05-23T00:48:06.496Z,18.38
2023-05-23T00:50:33.840Z,18.36
2023-05-23T00:53:01.753Z,18.33
2023-05-23T00:55:29.207Z,18.30
2023-05-23T00:57:57.252Z,18.27
2023-05-23T01:00:26.100Z,18.25
2023-05-23T01:02:53.624Z,18.22
2023-05-23T01:05:24.902Z,18.19
2023-05-23T01:07:51.897Z,18.18
2023-05-23T01:10:28.254Z,18.13
2023-05-23T01:13:22.249Z,18.10
2023-05-23T01:16:02.924Z,18.10
2023-05-23T01:19:08.757Z,18.08
2023-05-23T01:21:38.261Z,18.13
2023-05-23T01:24:36.585Z,18.07
2023-05-23T01:27:11.975Z,18.12
2023-05-23T01:29:43.461Z,18.13
2023-05-23T01:32:12.718Z,18.14
2023-05-23T01:34:40.244Z,18.14
2023-05-23T01:37:11.391Z,18.12
2023-05-23T01:39:38.809Z,18.14
2023-05-23T01:42:06.290Z,18.13
2023-05-23T01:44:35.368Z,18.09
2023-05-23T01:47:07.186Z,18.05
2023-05-23T01:49:36.890Z,18.02
2023-05-23T01:52:04.830Z,18.02
2023-05-23T01:54:32.901Z,18.01
2023-05-23T01:57:01.415Z,17.98
2023-05-23T01:59:28.056Z,17.96
2023-05-23T02:01:54.736Z,17.94
2023-05-23T02:04:22.114Z,17.94
2023-05-23T02:06:48.590Z,17.92
2023-05-23T02:09:15.208Z,17.93
2023-05-23T02:11:41.690Z,17.92
2023-05-23T02:14:09.367Z,17.94
2023-05-23T02:16:36.618Z,17.93
2023-05-23T02:19:03.636Z,17.94
2023-05-23T02:21:30.177Z,17.93
2023-05-23T02:23:56.852Z,17.92
2023-05-23T02:26:23.345Z,17.90
2023-05-23T02:28:49.886Z,17.89
2023-05-23T02:31:17.316Z,17.89
2023-05-23T02:33:44.007Z,17.88
2023-05-23T02:36:10.690Z,17.86
2023-05-23T02:38:37.199Z,17.83
2023-05-23T02:41:04.849Z,17.81
2023-05-23T02:43:31.419Z,17.78
2023-05-23T02:45:58.179Z,17.76
2023-05-23T02:48:24.804Z,17.71
2023-05-23T02:50:51.450Z,17.71
2023-05-23T02:53:18.317Z,17.68
2023-05-23T02:55:44.899Z,17.65
2023-05-23T02:58:11.504Z,17.60
2023-05-23T03:00:38.475Z,17.56
2023-05-23T03:03:05.273Z,17.54
2023-05-23T03:05:31.817Z,17.51
2023-05-23T03:07:58.448Z,17.47
2023-05-23T03:10:25.123Z,17.44
2023-05-23T03:12:51.633Z,17.40
2023-05-23T03:15:18.291Z,17.38
2023-05-23T03:17:44.980Z,17.36
2023-05-23T03:20:11.794Z,17.35
2023-05-23T03:22:38.247Z,17.34
2023-05-23T03:25:05.182Z,17.34
2023-05-23T03:27:31.598Z,17.35
2023-05-23T03:29:58.100Z,17.35
2023-05-23T03:32:24.717Z,17.34
2023-05-23T03:34:51.326Z,17.34
2023-05-23T03:37:17.898Z,17.35
2023-05-23T03:39:44.443Z,17.33
2023-05-23T03:42:10.870Z,17.33
2023-05-23T03:44:37.449Z,17.32
2023-05-23T03:47:04.064Z,17.33
2023-05-23T03:49:30.633Z,17.32
2023-05-23T03:51:58.297Z,17.35
2023-05-23T03:54:24.833Z,17.35
2023-05-23T03:56:51.357Z,17.35
2023-05-23T03:59:18.574Z,17.35
2023-05-23T04:01:45.067Z,17.36
2023-05-23T04:04:11.638Z,17.34
2023-05-23T04:06:38.345Z,17.32
2023-05-23T04:09:06.398Z,17.31
2023-05-23T04:11:33.222Z,17.31
2023-05-23T04:13:59.799Z,17.30
2023-05-23T04:16:26.329Z,17.30
2023-05-23T04:18:54.270Z,17.29
2023-05-23T04:21:20.974Z,17.29
2023-05-23T04:23:47.468Z,17.29
2023-05-23T04:26:14.005Z,17.28
2023-05-23T04:28:40.803Z,17.29
2023-05-23T04:31:08.234Z,17.30
2023-05-23T04:33:35.092Z,17.29
2023-05-23T04:36:02.593Z,17.28
2023-05-23T04:38:29.110Z,17.27
2023-05-23T04:40:55.668Z,17.25
2023-05-23T04:43:22.256Z,17.24
2023-05-23T04:45:50.027Z,17.22
2023-05-23T04:48:17.327Z,17.21
2023-05-23T04:50:44.458Z,17.19
2023-05-23T04:53:11.156Z,17.16
2023-05-23T04:55:37.792Z,17.15
2023-05-23T04:58:04.620Z,17.14
2023-05-23T05:00:31.243Z,17.13
2023-05-23T05:02:58.072Z,17.12
2023-05-23T05:05:24.637Z,17.12
2023-05-23T05:07:51.213Z,17.08
2023-05-23T05:10:18.055Z,17.03
2023-05-23T05:12:46.820Z,17.00
2023-05-23T05:15:13.744Z,16.97
2023-05-23T05:17:40.664Z,16.91
2023-05-23T05:20:08.764Z,16.86
2023-05-23T05:22:42.947Z,16.82
2023-05-23T05:25:11.175Z,16.78
2023-05-23T05:27:38.053Z,16.74
2023-05-23T05:30:09.112Z,16.71
2023-05-23T05:32:36.000Z,16.70
2023-05-23T05:35:03.569Z,16.68
2023-05-23T05:37:30.231Z,16.66
2023-05-23T05:39:56.992Z,16.62
2023-05-23T05:42:23.562Z,16.58
2023-05-23T05:44:50.638Z,16.51
2023-05-23T05:47:17.351Z,16.48
2023-05-23T05:49:44.020Z,16.45
2023-05-23T05:52:10.740Z,16.41
2023-05-23T05:54:37.698Z,16.39
2023-05-23T05:57:04.784Z,16.37
2023-05-23T05:59:32.660Z,16.34
2023-05-23T06:01:59.460Z,16.35
2023-05-23T06:04:26.313Z,16.33
2023-05-23T06:06:52.824Z,16.31
2023-05-23T06:09:19.437Z,16.31
2023-05-23T06:11:45.995Z,16.31
2023-05-23T06:14:12.594Z,16.30
2023-05-23T06:16:39.822Z,16.30
2023-05-23T06:19:06.912Z,16.28
2023-05-23T06:21:33.582Z,16.27
2023-05-23T06:24:00.121Z,16.25
2023-05-23T06:26:26.958Z,16.23
2023-05-23T06:28:53.494Z,16.20
2023-05-23T06:31:20.008Z,16.18
2023-05-23T06:33:46.573Z,16.15
2023-05-23T06:36:13.184Z,16.14
2023-05-23T06:38:39.701Z,16.13
2023-05-23T06:41:07.292Z,16.12
2023-05-23T06:43:33.954Z,16.11
2023-05-23T06:46:00.600Z,16.10
2023-05-23T06:48:27.173Z,16.10
2023-05-23T06:50:53.760Z,16.08
2023-05-23T06:53:20.560Z,16.07
2023-05-23T06:55:47.294Z,16.05
2023-05-23T06:58:14.764Z,16.03
2023-05-23T07:00:41.542Z,16.01
2023-05-23T07:03:08.426Z,15.99
2023-05-23T07:05:37.422Z,15.98
2023-05-23T07:08:07.345Z,15.96
2023-05-23T07:10:35.385Z,15.94
2023-05-23T07:13:02.159Z,15.92
2023-05-23T07:15:28.708Z,15.89
2023-05-23T07:17:55.718Z,15.88
2023-05-23T07:20:22.464Z,15.88
2023-05-23T07:22:50.847Z,15.87
2023-05-23T07:25:17.658Z,15.86
2023-05-23T07:27:44.267Z,15.85
2023-05-23T07:30:11.157Z,15.83
2023-05-23T07:32:37.840Z,15.81
2023-05-23T07:35:05.151Z,15.79
2023-05-23T07:37:31.823Z,15.73
2023-05-23T07:39:58.414Z,15.71
2023-05-23T07:42:24.955Z,15.70
2023-05-23T07:44:51.536Z,15.68
2023-05-23T07:47:18.163Z,15.67
2023-05-23T07:49:45.054Z,15.66
2023-05-23T07:52:11.592Z,15.63
2023-05-23T07:54:38.130Z,15.61
2023-05-23T07:57:05.164Z,15.58
2023-05-23T07:59:31.735Z,15.55
2023-05-23T08:01:58.338Z,15.55
2023-05-23T08:04:25.005Z,15.54
2023-05-23T08:07:00.804Z,15.54
2023-05-23T08:09:32.004Z,15.53
2023-05-23T08:11:58.557Z,15.50
2023-05-23T08:14:31.709Z,15.47
2023-05-23T08:17:05.224Z,15.44
2023-05-23T14:21:46.080Z,28.48
2023-05-23T14:24:12.763Z,28.68
2023-05-23T14:26:39.350Z,28.87
2023-05-23T14:29:06.297Z,28.95
2023-05-23T14:31:32.861Z,28.88
2023-05-23T14:33:59.585Z,28.64
2023-05-23T14:36:28.534Z,28.26
2023-05-23T14:38:55.088Z,27.90
2023-05-23T14:41:22.857Z,27.66
2023-05-23T14:43:49.571Z,27.56
2023-05-23T14:46:17.886Z,27.53
2023-05-23T14:48:44.514Z,27.51
2023-05-23T14:51:14.038Z,27.38
2023-05-23T14:53:47.421Z,27.22
2023-05-23T14:56:14.134Z,27.10
2023-05-23T14:58:45.584Z,27.03
2023-05-23T15:01:13.459Z,27.02
2023-05-23T15:03:40.073Z,27.06
2023-05-23T15:06:07.681Z,27.16
2023-05-23T15:08:34.283Z,27.33
2023-05-23T15:11:00.820Z,27.56
2023-05-23T15:13:27.437Z,27.79
2023-05-23T15:15:54.417Z,27.97
2023-05-23T15:18:35.694Z,28.02
2023-05-23T15:21:06.889Z,28.00
2023-05-23T15:23:33.567Z,27.89
2023-05-23T15:26:00.861Z,27.73
2023-05-23T15:28:27.431Z,27.55
2023-05-23T15:30:54.332Z,27.36
2023-05-23T15:33:22.017Z,27.14
2023-05-23T15:35:48.636Z,26.86
2023-05-23T15:38:17.111Z,26.63
2023-05-23T15:40:48.831Z,26.52
2023-05-23T15:43:15.701Z,26.54
2023-05-23T15:45:42.539Z,26.65
2023-05-23T15:48:09.280Z,26.85
2023-05-23T15:50:35.921Z,27.05
2023-05-23T15:53:02.581Z,27.25
2023-05-23T15:55:29.088Z,27.39
2023-05-23T15:57:55.710Z,27.52
2023-05-23T16:00:22.327Z,27.63
2023-05-23T16:02:48.950Z,27.72
2023-05-23T16:05:15.694Z,27.80
2023-05-23T16:07:42.274Z,27.84
2023-05-23T16:10:09.273Z,27.86
2023-05-23T16:12:35.936Z,27.87
2023-05-23T16:15:02.794Z,27.85
2023-05-23T16:17:29.478Z,27.67
2023-05-23T16:19:56.095Z,27.35
2023-05-23T16:22:23.390Z,26.92
2023-05-23T16:24:49.981Z,26.44
2023-05-23T16:27:16.714Z,25.94
2023-05-23T16:29:43.371Z,25.46
2023-05-23T16:32:10.134Z,25.05
2023-05-23T16:34:36.798Z,24.70
2023-05-23T16:37:03.425Z,24.36
2023-05-23T16:39:30.027Z,24.06
2023-05-23T16:41:58.752Z,23.79
2023-05-23T16:44:26.930Z,23.52
2023-05-23T16:46:53.758Z,23.29
2023-05-23T16:49:20.343Z,23.05
2023-05-23T16:51:48.640Z,22.79
2023-05-23T16:54:15.857Z,22.51
2023-05-23T16:56:42.988Z,22.22
2023-05-23T16:59:09.637Z,21.97
2023-05-23T17:01:36.278Z,21.74
2023-05-23T17:04:04.344Z,21.55
2023-05-23T17:06:31.424Z,21.37
2023-05-23T17:08:58.147Z,21.21
2023-05-23T17:11:25.490Z,21.07
2023-05-23T17:13:52.278Z,20.92
2023-05-23T17:16:20.687Z,20.78
2023-05-23T17:18:47.570Z,20.64
2023-05-23T17:21:14.289Z,20.50
2023-05-23T17:23:40.864Z,20.37
2023-05-23T17:26:07.508Z,20.23
2023-05-23T17:28:34.063Z,20.12
2023-05-23T17:31:00.994Z,19.97
2023-05-23T17:33:27.648Z,19.84
2023-05-23T17:35:54.192Z,19.69
2023-05-23T17:38:20.786Z,19.55
2023-05-23T17:40:47.466Z,19.42
2023-05-23T17:43:14.088Z,19.30
2023-05-23T17:45:41.475Z,19.19
2023-05-23T17:48:08.218Z,19.13
2023-05-23T17:50:34.805Z,19.06
2023-05-23T17:53:04.117Z,19.03
2023-05-23T17:55:30.956Z,19.00
2023-05-23T17:57:57.648Z,19.00
2023-05-23T18:00:24.922Z,18.99
2023-05-23T18:02:51.957Z,18.96
2023-05-23T18:05:20.826Z,18.92
2023-05-23T18:07:47.846Z,18.85
2023-05-23T18:10:14.494Z,18.73
2023-05-23T18:12:41.281Z,18.62
2023-05-23T18:15:10.049Z,18.49
2023-05-23T18:17:36.783Z,18.35
2023-05-23T18:20:03.928Z,18.23
2023-05-23T18:22:33.369Z,18.12
2023-05-23T18:25:00.214Z,18.01
2023-05-23T18:27:26.879Z,17.91
2023-05-23T18:29:53.488Z,17.83
2023-05-23T18:32:20.885Z,17.75
2023-05-23T18:34:47.537Z,17.66
2023-05-23T18:37:14.151Z,17.55
2023-05-23T18:39:41.131Z,17.46
2023-05-23T18:42:07.853Z,17.36
2023-05-23T18:44:35.202Z,17.29
2023-05-23T18:47:01.770Z,17.21
2023-05-23T18:49:28.422Z,17.12
2023-05-23T18:51:54.877Z,17.05
2023-05-23T18:54:21.384Z,16.99
2023-05-23T18:56:47.937Z,16.90
2023-05-23T18:59:15.815Z,16.82
2023-05-23T19:01:42.641Z,16.74
2023-05-23T19:04:09.940Z,16.67
2023-05-23T19:06:36.812Z,16.57
2023-05-23T19:09:06.710Z,16.45
2023-05-23T19:11:33.301Z,16.34
2023-05-23T19:13:59.777Z,16.22
2023-05-23T19:16:26.371Z,16.12
2023-05-23T19:18:53.152Z,16.05
2023-05-23T19:21:19.684Z,15.97
2023-05-23T19:23:46.171Z,15.92
2023-05-23T19:26:13.621Z,15.86
2023-05-23T19:28:40.496Z,15.80
2023-05-23T19:31:07.925Z,15.73
2023-05-23T19:33:34.489Z,15.67
2023-05-23T19:36:01.241Z,15.62
2023-05-23T19:38:27.798Z,15.55
2023-05-23T19:40:54.352Z,15.49
2023-05-23T19:43:21.037Z,15.42
2023-05-23T19:45:47.595Z,15.35
2023-05-23T19:48:14.293Z,15.29
2023-05-23T19:50:43.201Z,15.21
2023-05-23T19:53:10.067Z,15.13
2023-05-23T19:55:36.627Z,15.05
2023-05-23T19:58:03.382Z,14.96
2023-05-23T20:00:29.879Z,14.89
2023-05-23T20:02:56.898Z,14.83
2023-05-23T20:05:23.628Z,14.76
2023-05-23T20:07:50.156Z,14.71
2023-05-23T20:10:16.692Z,14.65
2023-05-23T20:12:43.243Z,14.59
2023-05-23T20:15:10.117Z,14.54
2023-05-23T20:17:36.769Z,14.49
2023-05-23T20:22:50.106Z,14.40
2023-05-23T20:25:17.571Z,14.36
2023-05-23T20:27:44.097Z,14.33
2023-05-23T20:30:11.493Z,14.28
2023-05-23T20:32:38.208Z,14.24
2023-05-23T20:35:05.207Z,14.19
2023-05-23T20:37:31.800Z,14.14
2023-05-23T20:40:00.572Z,14.09
2023-05-23T20:42:28.816Z,14.04
2023-05-23T20:44:56.989Z,13.99
2023-05-23T20:47:25.670Z,13.91
2023-05-23T20:49:52.169Z,13.85
2023-05-23T20:52:18.692Z,13.79
2023-05-23T20:54:48.074Z,13.74
2023-05-23T20:57:14.795Z,13.67
2023-05-23T20:59:41.337Z,13.63
2023-05-23T21:02:08.261Z,13.59
2023-05-23T21:04:34.857Z,13.54
2023-05-23T21:07:01.517Z,13.51
2023-05-23T21:09:28.079Z,13.49
2023-05-23T21:11:54.629Z,13.46
2023-05-23T21:14:21.203Z,13.42
2023-05-23T21:16:47.841Z,13.39
2023-05-23T21:19:14.728Z,13.36
2023-05-23T21:21:41.450Z,13.34
2023-05-23T21:24:08.015Z,13.32
2023-05-23T21:26:34.578Z,13.29
2023-05-23T21:29:01.326Z,13.27
2023-05-23T21:31:40.174Z,13.24
2023-05-23T21:34:21.668Z,13.21
2023-05-23T21:36:50.340Z,13.19
2023-05-23T21:39:16.910Z,13.15
2023-05-23T21:41:43.434Z,13.13
2023-05-23T21:44:10.015Z,13.09
2023-05-23T21:46:37.221Z,13.06
2023-05-23T21:49:04.157Z,13.02
2023-05-23T21:51:31.167Z,13.00
2023-05-23T21:53:57.636Z,12.97
2023-05-23T21:56:24.214Z,12.95
2023-05-23T21:58:50.805Z,12.93
2023-05-23T22:01:17.513Z,12.92
2023-05-23T22:03:44.064Z,12.89
2023-05-23T22:06:10.751Z,12.88
2023-05-23T22:08:52.517Z,12.84
2023-05-23T22:11:19.352Z,12.87
2023-05-23T22:13:45.872Z,12.87
2023-05-23T22:16:12.440Z,12.86
2023-05-23T22:18:51.558Z,12.85
2023-05-23T22:21:18.607Z,12.85
2023-05-23T22:23:45.361Z,12.84
2023-05-23T22:26:12.452Z,12.81
2023-05-23T22:28:39.157Z,12.79
2023-05-23T22:31:05.683Z,12.77
2023-05-23T22:33:32.264Z,12.73
2023-05-23T22:35:58.871Z,12.72
2023-05-23T22:38:25.595Z,12.69
2023-05-23T22:40:52.163Z,12.65
2023-05-23T22:43:21.453Z,12.62
2023-05-23T22:45:49.989Z,12.60
2023-05-23T22:48:19.296Z,12.57
2023-05-23T22:50:46.656Z,12.57
2023-05-23T22:53:15.311Z,12.56
2023-05-23T22:55:42.283Z,12.55
2023-05-23T22:58:09.033Z,12.52
2023-05-23T23:00:36.552Z,12.53
2023-05-23T23:03:03.671Z,12.51
2023-05-23T23:05:30.677Z,12.50
2023-05-23T23:07:57.285Z,12.49
2023-05-23T23:10:23.826Z,12.47
2023-05-23T23:12:50.627Z,12.46
2023-05-23T23:15:17.244Z,12.43
2023-05-23T23:17:43.913Z,12.41
2023-05-23T23:20:12.617Z,12.38
2023-05-23T23:22:39.702Z,12.35
2023-05-23T23:25:10.534Z,12.33
2023-05-23T23:27:38.188Z,12.30
2023-05-23T23:30:08.500Z,12.27
2023-05-23T23:32:35.343Z,12.27
2023-05-23T23:35:02.275Z,12.25
2023-05-23T23:37:28.911Z,12.23
2023-05-23T23:39:55.612Z,12.21
2023-05-23T23:42:22.248Z,12.20
2023-05-23T23:44:48.870Z,12.18
2023-05-23T23:47:15.441Z,12.16
2023-05-23T23:49:42.291Z,12.14
2023-05-23T23:52:09.304Z,12.13
2023-05-23T23:54:36.065Z,12.12
2023-05-23T23:57:02.643Z,12.11
2023-05-23T23:59:29.347Z,12.07
